Terminal Aerodrome Forecast
Issued by NWS Cleveland, OH

Home | Current Version | Previous Version | Graphics & Text | Print | Product List | Glossary On
Versions: 1 2 3 4 5 6 7 8 9 10 11 12 13 14 15 16 17
000
FTUS41 KCLE 241606 AAB
TAFMFD
TAF AMD
KMFD 241606Z 2416/2512 32010KT P6SM SCT025 BKN035
     FM250100 34005KT P6SM SCT030
     FM250900 33004KT 6SM BR BKN025=

USA.gov is the U.S. government's official web portal to all federal, state and local government web resources and services.